sensor_id;sensor_type;location;lat;lon;timestamp;temperature;humidity
73277;DHT22;61501;43.316;5.372;2023-07-09T09:03:48;31.90;99.90
73277;DHT22;61501;43.316;5.372;2023-07-09T09:19:32;34.40;95.40
73277;DHT22;61501;43.316;5.372;2023-07-09T09:22:09;31.90;99.90
73277;DHT22;61501;43.316;5.372;2023-07-09T09:28:35;29.60;99.90
73277;DHT22;61501;43.316;5.372;2023-07-09T09:31:01;29.00;99.90
73277;DHT22;61501;43.316;5.372;2023-07-09T09:33:37;28.90;98.60
73277;DHT22;61501;43.316;5.372;2023-07-09T09:36:05;28.90;98.30
73277;DHT22;61501;43.316;5.372;2023-07-09T09:38:36;28.90;97.80
73277;DHT22;61501;43.316;5.372;2023-07-09T09:41:02;29.10;96.40
73277;DHT22;61501;43.316;5.372;2023-07-09T09:43:32;29.20;95.70
73277;DHT22;61501;43.316;5.372;2023-07-09T09:45:59;29.30;95.00
73277;DHT22;61501;43.316;5.372;2023-07-09T09:48:29;29.30;95.10
73277;DHT22;61501;43.316;5.372;2023-07-09T09:50:56;29.20;96.10
73277;DHT22;61501;43.316;5.372;2023-07-09T09:53:28;29.10;96.60
73277;DHT22;61501;43.316;5.372;2023-07-09T09:55:55;29.00;97.70
73277;DHT22;61501;43.316;5.372;2023-07-09T09:58:27;28.90;98.40
73277;DHT22;61501;43.316;5.372;2023-07-09T10:00:56;28.90;98.90
73277;DHT22;61501;43.316;5.372;2023-07-09T10:03:33;28.90;99.00
73277;DHT22;61501;43.316;5.372;2023-07-09T10:06:02;28.90;99.40
73277;DHT22;61501;43.316;5.372;2023-07-09T10:08:52;29.00;99.50
73277;DHT22;61501;43.316;5.372;2023-07-09T10:14:26;29.10;99.40
73277;DHT22;61501;43.316;5.372;2023-07-09T10:17:06;29.10;99.90
73277;DHT22;61501;43.316;5.372;2023-07-09T10:20:02;29.20;99.30
73277;DHT22;61501;43.316;5.372;2023-07-09T10:22:54;29.30;98.40
73277;DHT22;61501;43.316;5.372;2023-07-09T10:25:33;29.20;97.30
73277;DHT22;61501;43.316;5.372;2023-07-09T10:28:22;29.20;98.60
73277;DHT22;61501;43.316;5.372;2023-07-09T10:31:00;29.20;99.00
73277;DHT22;61501;43.316;5.372;2023-07-09T10:33:40;29.30;98.90
73277;DHT22;61501;43.316;5.372;2023-07-09T10:36:25;29.30;99.00
73277;DHT22;61501;43.316;5.372;2023-07-09T10:39:02;29.50;97.10
73277;DHT22;61501;43.316;5.372;2023-07-09T10:41:31;29.40;97.50
73277;DHT22;61501;43.316;5.372;2023-07-09T10:44:22;29.50;97.60
73277;DHT22;61501;43.316;5.372;2023-07-09T10:46:53;29.50;97.20
73277;DHT22;61501;43.316;5.372;2023-07-09T10:49:21;29.60;97.50
73277;DHT22;61501;43.316;5.372;2023-07-09T10:52:04;29.50;97.00
73277;DHT22;61501;43.316;5.372;2023-07-09T10:54:55;29.60;95.60
73277;DHT22;61501;43.316;5.372;2023-07-09T10:57:41;29.70;95.30
73277;DHT22;61501;43.316;5.372;2023-07-09T11:00:20;29.70;93.80
73277;DHT22;61501;43.316;5.372;2023-07-09T11:02:50;29.90;95.20
73277;DHT22;61501;43.316;5.372;2023-07-09T11:05:16;29.80;94.80
73277;DHT22;61501;43.316;5.372;2023-07-09T11:08:08;29.70;95.50
73277;DHT22;61501;43.316;5.372;2023-07-09T11:10:36;29.90;93.10
73277;DHT22;61501;43.316;5.372;2023-07-09T11:13:58;29.90;92.40
73277;DHT22;61501;43.316;5.372;2023-07-09T11:16:03;30.10;91.10
73277;DHT22;61501;43.316;5.372;2023-07-09T11:18:34;30.30;90.40
73277;DHT22;61501;43.316;5.372;2023-07-09T11:21:04;30.40;89.80
73277;DHT22;61501;43.316;5.372;2023-07-09T11:23:44;30.40;88.80
73277;DHT22;61501;43.316;5.372;2023-07-09T11:26:15;30.60;87.90
73277;DHT22;61501;43.316;5.372;2023-07-09T11:28:51;30.60;86.70
73277;DHT22;61501;43.316;5.372;2023-07-09T11:31:24;30.60;85.90
73277;DHT22;61501;43.316;5.372;2023-07-09T11:34:01;30.60;86.30
73277;DHT22;61501;43.316;5.372;2023-07-09T11:36:29;30.40;85.90
73277;DHT22;61501;43.316;5.372;2023-07-09T11:38:55;30.60;85.20
73277;DHT22;61501;43.316;5.372;2023-07-09T11:44:18;30.70;83.90
73277;DHT22;61501;43.316;5.372;2023-07-09T11:49:23;30.70;83.50
73277;DHT22;61501;43.316;5.372;2023-07-09T11:51:53;30.70;82.80
73277;DHT22;61501;43.316;5.372;2023-07-09T11:54:20;30.70;82.90
73277;DHT22;61501;43.316;5.372;2023-07-09T11:56:59;30.70;81.30
73277;DHT22;61501;43.316;5.372;2023-07-09T11:59:27;30.70;81.90
73277;DHT22;61501;43.316;5.372;2023-07-09T12:01:53;31.00;80.60
73277;DHT22;61501;43.316;5.372;2023-07-09T12:04:23;31.20;77.40
73277;DHT22;61501;43.316;5.372;2023-07-09T12:06:57;31.50;76.40
73277;DHT22;61501;43.316;5.372;2023-07-09T12:09:23;31.80;73.70
73277;DHT22;61501;43.316;5.372;2023-07-09T12:11:50;32.30;73.10
73277;DHT22;61501;43.316;5.372;2023-07-09T12:14:21;32.90;70.50
73277;DHT22;61501;43.316;5.372;2023-07-09T12:16:50;33.30;67.50
73277;DHT22;61501;43.316;5.372;2023-07-09T12:19:18;34.00;64.40
73277;DHT22;61501;43.316;5.372;2023-07-09T12:21:46;34.60;64.00
73277;DHT22;61501;43.316;5.372;2023-07-09T12:24:18;34.70;65.50
73277;DHT22;61501;43.316;5.372;2023-07-09T12:26:48;35.00;61.60
73277;DHT22;61501;43.316;5.372;2023-07-09T12:29:14;35.10;61.50
73277;DHT22;61501;43.316;5.372;2023-07-09T12:31:40;35.20;62.20
73277;DHT22;61501;43.316;5.372;2023-07-09T12:34:10;34.70;62.20
73277;DHT22;61501;43.316;5.372;2023-07-09T12:36:46;34.40;66.10
73277;DHT22;61501;43.316;5.372;2023-07-09T12:39:12;34.50;68.40
73277;DHT22;61501;43.316;5.372;2023-07-09T12:41:41;33.90;70.00
73277;DHT22;61501;43.316;5.372;2023-07-09T12:44:18;33.80;69.40
73277;DHT22;61501;43.316;5.372;2023-07-09T12:46:45;33.90;70.40
73277;DHT22;61501;43.316;5.372;2023-07-09T12:49:22;34.20;72.80
73277;DHT22;61501;43.316;5.372;2023-07-09T12:51:48;34.10;73.50
73277;DHT22;61501;43.316;5.372;2023-07-09T12:56:41;33.40;76.10
73277;DHT22;61501;43.316;5.372;2023-07-09T12:59:19;33.50;76.20
73277;DHT22;61501;43.316;5.372;2023-07-09T13:04:37;33.80;72.30
73277;DHT22;61501;43.316;5.372;2023-07-09T13:07:03;33.70;78.60
73277;DHT22;61501;43.316;5.372;2023-07-09T13:09:30;33.30;79.80
73277;DHT22;61501;43.316;5.372;2023-07-09T13:11:56;33.10;78.40
73277;DHT22;61501;43.316;5.372;2023-07-09T13:14:25;33.30;77.00
73277;DHT22;61501;43.316;5.372;2023-07-09T13:16:51;33.50;78.50
73277;DHT22;61501;43.316;5.372;2023-07-09T13:19:17;33.70;76.60
73277;DHT22;61501;43.316;5.372;2023-07-09T13:21:44;33.50;77.70
73277;DHT22;61501;43.316;5.372;2023-07-09T13:24:16;33.40;76.00
73277;DHT22;61501;43.316;5.372;2023-07-09T13:26:42;33.30;72.90
73277;DHT22;61501;43.316;5.372;2023-07-09T13:29:15;33.20;74.50
73277;DHT22;61501;43.316;5.372;2023-07-09T13:31:46;33.30;74.70
73277;DHT22;61501;43.316;5.372;2023-07-09T13:34:23;33.50;75.20
73277;DHT22;61501;43.316;5.372;2023-07-09T13:36:50;33.40;77.90
73277;DHT22;61501;43.316;5.372;2023-07-09T13:39:16;33.00;79.70
73277;DHT22;61501;43.316;5.372;2023-07-09T13:41:44;32.10;86.10
73277;DHT22;61501;43.316;5.372;2023-07-09T13:44:13;32.20;88.10
73277;DHT22;61501;43.316;5.372;2023-07-09T13:46:39;31.90;88.00
73277;DHT22;61501;43.316;5.372;2023-07-09T13:49:12;31.60;92.40
73277;DHT22;61501;43.316;5.372;2023-07-09T13:51:40;31.80;91.20
73277;DHT22;61501;43.316;5.372;2023-07-09T13:54:16;31.70;91.20
73277;DHT22;61501;43.316;5.372;2023-07-09T13:56:42;31.90;90.90
73277;DHT22;61501;43.316;5.372;2023-07-09T13:59:22;31.80;90.70
73277;DHT22;61501;43.316;5.372;2023-07-09T14:01:54;31.60;93.10
73277;DHT22;61501;43.316;5.372;2023-07-09T14:04:21;31.50;92.10
73277;DHT22;61501;43.316;5.372;2023-07-09T14:06:47;31.30;94.10
73277;DHT22;61501;43.316;5.372;2023-07-09T14:09:14;31.20;96.60
73277;DHT22;61501;43.316;5.372;2023-07-09T14:11:51;31.60;94.20
73277;DHT22;61501;43.316;5.372;2023-07-09T14:14:27;31.30;96.60
73277;DHT22;61501;43.316;5.372;2023-07-09T14:16:55;31.30;96.80
73277;DHT22;61501;43.316;5.372;2023-07-09T14:19:23;31.20;97.20
73277;DHT22;61501;43.316;5.372;2023-07-09T14:21:50;31.40;96.10
73277;DHT22;61501;43.316;5.372;2023-07-09T14:24:26;31.10;97.60
73277;DHT22;61501;43.316;5.372;2023-07-09T14:26:55;31.10;99.50
73277;DHT22;61501;43.316;5.372;2023-07-09T14:29:22;31.40;97.40
73277;DHT22;61501;43.316;5.372;2023-07-09T14:31:49;30.10;99.90
73277;DHT22;61501;43.316;5.372;2023-07-09T14:34:27;29.70;99.90
73277;DHT22;61501;43.316;5.372;2023-07-09T14:36:55;29.80;99.90
73277;DHT22;61501;43.316;5.372;2023-07-09T14:39:21;30.10;99.90
73277;DHT22;61501;43.316;5.372;2023-07-09T14:41:47;29.90;99.90
73277;DHT22;61501;43.316;5.372;2023-07-09T14:44:25;29.80;99.90
73277;DHT22;61501;43.316;5.372;2023-07-09T14:46:52;29.30;99.90
73277;DHT22;61501;43.316;5.372;2023-07-09T14:49:18;29.30;99.90
73277;DHT22;61501;43.316;5.372;2023-07-09T14:51:44;29.50;99.90
73277;DHT22;61501;43.316;5.372;2023-07-09T14:56:43;29.50;99.90
73277;DHT22;61501;43.316;5.372;2023-07-09T14:59:09;29.50;99.90
73277;DHT22;61501;43.316;5.372;2023-07-09T15:01:35;29.00;99.90
73277;DHT22;61501;43.316;5.372;2023-07-09T15:04:24;29.20;99.90
73277;DHT22;61501;43.316;5.372;2023-07-09T15:06:52;29.30;99.90
73277;DHT22;61501;43.316;5.372;2023-07-09T15:09:23;29.00;99.90
73277;DHT22;61501;43.316;5.372;2023-07-09T15:11:52;28.70;99.90
73277;DHT22;61501;43.316;5.372;2023-07-09T15:14:18;28.60;99.90
73277;DHT22;61501;43.316;5.372;2023-07-09T15:16:49;28.90;99.90
73277;DHT22;61501;43.316;5.372;2023-07-09T15:19:17;29.30;99.90
73277;DHT22;61501;43.316;5.372;2023-07-09T15:21:44;29.50;99.90
73277;DHT22;61501;43.316;5.372;2023-07-09T15:26:53;28.90;99.90
73277;DHT22;61501;43.316;5.372;2023-07-09T15:29:20;28.80;99.90
73277;DHT22;61501;43.316;5.372;2023-07-09T15:31:46;28.80;99.90
73277;DHT22;61501;43.316;5.372;2023-07-09T15:34:12;29.10;99.90
73277;DHT22;61501;43.316;5.372;2023-07-09T15:36:44;29.00;99.90
73277;DHT22;61501;43.316;5.372;2023-07-09T15:39:11;28.90;99.90
73277;DHT22;61501;43.316;5.372;2023-07-09T15:41:37;28.60;99.90
73277;DHT22;61501;43.316;5.372;2023-07-09T15:44:04;28.30;99.90
73277;DHT22;61501;43.316;5.372;2023-07-09T15:46:30;28.10;99.90
73277;DHT22;61501;43.316;5.372;2023-07-09T15:48:56;28.00;99.90
73277;DHT22;61501;43.316;5.372;2023-07-09T15:51:22;28.20;99.90
73277;DHT22;61501;43.316;5.372;2023-07-09T15:53:48;28.40;99.90
73277;DHT22;61501;43.316;5.372;2023-07-09T15:56:27;28.40;99.90
73277;DHT22;61501;43.316;5.372;2023-07-09T15:58:56;28.20;99.90
73277;DHT22;61501;43.316;5.372;2023-07-09T16:01:22;28.30;99.90
73277;DHT22;61501;43.316;5.372;2023-07-09T16:03:50;28.30;99.90
73277;DHT22;61501;43.316;5.372;2023-07-09T16:06:17;28.50;99.90
73277;DHT22;61501;43.316;5.372;2023-07-09T16:08:43;28.40;99.90
73277;DHT22;61501;43.316;5.372;2023-07-09T16:11:21;28.10;99.90
73277;DHT22;61501;43.316;5.372;2023-07-09T16:13:47;28.10;99.90
73277;DHT22;61501;43.316;5.372;2023-07-09T16:16:18;28.10;99.90
73277;DHT22;61501;43.316;5.372;2023-07-09T16:18:44;28.20;99.90
73277;DHT22;61501;43.316;5.372;2023-07-09T16:21:31;28.50;99.90
73277;DHT22;61501;43.316;5.372;2023-07-09T16:23:58;28.50;99.90
73277;DHT22;61501;43.316;5.372;2023-07-09T16:26:26;28.40;99.90
73277;DHT22;61501;43.316;5.372;2023-07-09T16:28:51;28.40;99.90
73277;DHT22;61501;43.316;5.372;2023-07-09T16:31:17;28.40;99.90
73277;DHT22;61501;43.316;5.372;2023-07-09T16:33:43;28.70;99.90
73277;DHT22;61501;43.316;5.372;2023-07-09T16:36:18;28.50;99.90
73277;DHT22;61501;43.316;5.372;2023-07-09T16:38:45;28.70;99.90
73277;DHT22;61501;43.316;5.372;2023-07-09T16:41:12;28.70;99.90
73277;DHT22;61501;43.316;5.372;2023-07-09T16:43:42;28.80;99.90
73277;DHT22;61501;43.316;5.372;2023-07-09T16:46:20;28.80;99.90
73277;DHT22;61501;43.316;5.372;2023-07-09T16:48:47;28.70;99.90
73277;DHT22;61501;43.316;5.372;2023-07-09T16:51:13;28.80;99.90
73277;DHT22;61501;43.316;5.372;2023-07-09T16:53:38;28.70;99.90
73277;DHT22;61501;43.316;5.372;2023-07-09T16:56:04;28.70;99.90
73277;DHT22;61501;43.316;5.372;2023-07-09T16:58:32;28.80;99.90
73277;DHT22;61501;43.316;5.372;2023-07-09T17:00:59;29.10;99.90
73277;DHT22;61501;43.316;5.372;2023-07-09T17:03:25;29.40;99.90
73277;DHT22;61501;43.316;5.372;2023-07-09T17:05:51;29.50;99.90
73277;DHT22;61501;43.316;5.372;2023-07-09T17:08:17;29.10;99.90
73277;DHT22;61501;43.316;5.372;2023-07-09T17:10:43;29.10;99.90
73277;DHT22;61501;43.316;5.372;2023-07-09T17:13:23;29.10;99.90
73277;DHT22;61501;43.316;5.372;2023-07-09T17:15:50;29.30;99.90
73277;DHT22;61501;43.316;5.372;2023-07-09T17:18:20;29.10;99.90
73277;DHT22;61501;43.316;5.372;2023-07-09T17:20:47;28.80;99.90
73277;DHT22;61501;43.316;5.372;2023-07-09T17:23:14;29.10;99.90
73277;DHT22;61501;43.316;5.372;2023-07-09T17:25:40;29.50;99.90
73277;DHT22;61501;43.316;5.372;2023-07-09T17:28:21;29.60;99.90
73277;DHT22;61501;43.316;5.372;2023-07-09T17:30:48;29.30;99.90
73277;DHT22;61501;43.316;5.372;2023-07-09T17:33:17;29.40;99.90
73277;DHT22;61501;43.316;5.372;2023-07-09T17:35:43;29.60;99.90
73277;DHT22;61501;43.316;5.372;2023-07-09T17:38:32;29.90;99.90
73277;DHT22;61501;43.316;5.372;2023-07-09T17:40:58;29.90;99.90
73277;DHT22;61501;43.316;5.372;2023-07-09T17:43:25;29.70;99.90
73277;DHT22;61501;43.316;5.372;2023-07-09T17:45:51;29.90;99.90
73277;DHT22;61501;43.316;5.372;2023-07-09T17:48:24;29.70;99.90
73277;DHT22;61501;43.316;5.372;2023-07-09T17:50:50;29.60;99.90
73277;DHT22;61501;43.316;5.372;2023-07-09T17:53:28;29.60;99.90
73277;DHT22;61501;43.316;5.372;2023-07-09T17:55:54;29.60;99.90
73277;DHT22;61501;43.316;5.372;2023-07-09T17:58:25;29.40;99.90
73277;DHT22;61501;43.316;5.372;2023-07-09T18:00:52;28.70;99.90
73277;DHT22;61501;43.316;5.372;2023-07-09T18:03:18;28.50;99.90
73277;DHT22;61501;43.316;5.372;2023-07-09T18:05:45;28.40;99.90
73277;DHT22;61501;43.316;5.372;2023-07-09T18:08:11;28.00;99.90
73277;DHT22;61501;43.316;5.372;2023-07-09T18:10:40;28.00;99.90
73277;DHT22;61501;43.316;5.372;2023-07-09T18:13:10;27.60;99.90
73277;DHT22;61501;43.316;5.372;2023-07-09T18:15:36;27.50;99.90
73277;DHT22;61501;43.316;5.372;2023-07-09T18:18:03;27.60;99.90
73277;DHT22;61501;43.316;5.372;2023-07-09T18:20:30;27.40;99.90
73277;DHT22;61501;43.316;5.372;2023-07-09T18:22:56;27.50;99.90
73277;DHT22;61501;43.316;5.372;2023-07-09T18:25:23;27.50;99.90
73277;DHT22;61501;43.316;5.372;2023-07-09T18:27:52;27.60;99.90
73277;DHT22;61501;43.316;5.372;2023-07-09T18:30:19;27.60;99.90
73277;DHT22;61501;43.316;5.372;2023-07-09T18:32:46;27.70;99.90
73277;DHT22;61501;43.316;5.372;2023-07-09T18:35:27;27.90;99.90
73277;DHT22;61501;43.316;5.372;2023-07-09T18:37:59;27.80;99.90
73277;DHT22;61501;43.316;5.372;2023-07-09T18:40:29;27.70;99.90
73277;DHT22;61501;43.316;5.372;2023-07-09T18:42:56;27.70;99.90
73277;DHT22;61501;43.316;5.372;2023-07-09T18:45:27;27.80;99.90
73277;DHT22;61501;43.316;5.372;2023-07-09T18:47:54;27.70;99.90
73277;DHT22;61501;43.316;5.372;2023-07-09T18:50:30;27.60;99.90
73277;DHT22;61501;43.316;5.372;2023-07-09T18:52:57;27.40;99.90
73277;DHT22;61501;43.316;5.372;2023-07-09T18:55:25;27.40;99.90
73277;DHT22;61501;43.316;5.372;2023-07-09T18:57:51;27.30;99.90
73277;DHT22;61501;43.316;5.372;2023-07-09T19:00:18;27.20;99.90
73277;DHT22;61501;43.316;5.372;2023-07-09T19:02:46;27.20;99.90
73277;DHT22;61501;43.316;5.372;2023-07-09T19:05:27;27.20;99.90
73277;DHT22;61501;43.316;5.372;2023-07-09T19:07:55;27.10;99.90
73277;DHT22;61501;43.316;5.372;2023-07-09T19:10:22;27.00;99.90
73277;DHT22;61501;43.316;5.372;2023-07-09T19:12:49;27.00;99.90
73277;DHT22;61501;43.316;5.372;2023-07-09T19:15:18;27.00;99.90
73277;DHT22;61501;43.316;5.372;2023-07-09T19:17:44;27.00;99.90
73277;DHT22;61501;43.316;5.372;2023-07-09T19:20:19;26.90;99.90
73277;DHT22;61501;43.316;5.372;2023-07-09T19:22:46;26.90;99.90
73277;DHT22;61501;43.316;5.372;2023-07-09T19:25:13;27.00;99.90
73277;DHT22;61501;43.316;5.372;2023-07-09T19:27:39;27.00;99.90
73277;DHT22;61501;43.316;5.372;2023-07-09T19:30:05;27.00;99.90
73277;DHT22;61501;43.316;5.372;2023-07-09T19:32:31;27.00;99.90
73277;DHT22;61501;43.316;5.372;2023-07-09T19:34:57;27.00;99.90
73277;DHT22;61501;43.316;5.372;2023-07-09T19:37:25;27.10;99.90
73277;DHT22;61501;43.316;5.372;2023-07-09T19:39:52;27.10;99.90
73277;DHT22;61501;43.316;5.372;2023-07-09T19:42:20;27.00;99.90
73277;DHT22;61501;43.316;5.372;2023-07-09T19:44:46;27.00;99.90
73277;DHT22;61501;43.316;5.372;2023-07-09T19:47:19;27.00;99.90
73277;DHT22;61501;43.316;5.372;2023-07-09T19:49:46;27.00;99.90
73277;DHT22;61501;43.316;5.372;2023-07-09T19:52:13;27.00;99.90
73277;DHT22;61501;43.316;5.372;2023-07-09T19:54:40;27.10;99.90
73277;DHT22;61501;43.316;5.372;2023-07-09T19:57:08;27.10;99.90
73277;DHT22;61501;43.316;5.372;2023-07-09T19:59:34;27.10;99.90
73277;DHT22;61501;43.316;5.372;2023-07-09T20:02:00;27.10;99.90
73277;DHT22;61501;43.316;5.372;2023-07-09T20:04:25;27.00;99.90
73277;DHT22;61501;43.316;5.372;2023-07-09T20:06:51;27.00;99.90
73277;DHT22;61501;43.316;5.372;2023-07-09T20:09:17;26.90;99.90
73277;DHT22;61501;43.316;5.372;2023-07-09T20:11:48;26.90;99.90
73277;DHT22;61501;43.316;5.372;2023-07-09T20:14:21;26.90;99.90
73277;DHT22;61501;43.316;5.372;2023-07-09T20:16:47;26.80;99.90
73277;DHT22;61501;43.316;5.372;2023-07-09T20:19:13;26.70;99.90
73277;DHT22;61501;43.316;5.372;2023-07-09T20:21:42;26.80;99.90
73277;DHT22;61501;43.316;5.372;2023-07-09T20:24:17;26.80;99.90
73277;DHT22;61501;43.316;5.372;2023-07-09T20:26:43;26.80;99.90
73277;DHT22;61501;43.316;5.372;2023-07-09T20:29:15;26.70;99.90
73277;DHT22;61501;43.316;5.372;2023-07-09T20:31:49;26.70;99.90
73277;DHT22;61501;43.316;5.372;2023-07-09T20:34:20;26.80;99.90
73277;DHT22;61501;43.316;5.372;2023-07-09T20:36:49;26.90;99.90
73277;DHT22;61501;43.316;5.372;2023-07-09T20:39:17;26.90;99.90
73277;DHT22;61501;43.316;5.372;2023-07-09T20:41:45;26.90;99.90
73277;DHT22;61501;43.316;5.372;2023-07-09T20:44:17;26.90;99.90
73277;DHT22;61501;43.316;5.372;2023-07-09T20:46:43;26.90;99.90
73277;DHT22;61501;43.316;5.372;2023-07-09T20:49:29;26.90;99.90
73277;DHT22;61501;43.316;5.372;2023-07-09T20:52:02;26.90;99.90
73277;DHT22;61501;43.316;5.372;2023-07-09T20:54:28;26.90;99.90
73277;DHT22;61501;43.316;5.372;2023-07-09T20:56:57;26.90;99.90
73277;DHT22;61501;43.316;5.372;2023-07-09T20:59:23;26.90;99.90
73277;DHT22;61501;43.316;5.372;2023-07-09T21:01:48;26.80;99.90
73277;DHT22;61501;43.316;5.372;2023-07-09T21:04:17;26.80;99.90
73277;DHT22;61501;43.316;5.372;2023-07-09T21:06:43;26.80;99.90
73277;DHT22;61501;43.316;5.372;2023-07-09T21:09:28;26.80;99.90
73277;DHT22;61501;43.316;5.372;2023-07-09T21:11:56;26.80;99.90
73277;DHT22;61501;43.316;5.372;2023-07-09T21:14:21;26.90;99.90
73277;DHT22;61501;43.316;5.372;2023-07-09T21:16:48;26.80;99.90
73277;DHT22;61501;43.316;5.372;2023-07-09T21:19:19;26.80;99.90
73277;DHT22;61501;43.316;5.372;2023-07-09T21:21:47;26.90;99.90
73277;DHT22;61501;43.316;5.372;2023-07-09T21:24:28;26.90;99.90
73277;DHT22;61501;43.316;5.372;2023-07-09T21:26:55;26.90;99.90
73277;DHT22;61501;43.316;5.372;2023-07-09T21:29:24;26.90;99.90
73277;DHT22;61501;43.316;5.372;2023-07-09T21:31:52;26.90;99.90
73277;DHT22;61501;43.316;5.372;2023-07-09T21:34:25;26.90;99.90
73277;DHT22;61501;43.316;5.372;2023-07-09T21:36:56;26.90;99.90
73277;DHT22;61501;43.316;5.372;2023-07-09T21:39:23;26.80;99.90
73277;DHT22;61501;43.316;5.372;2023-07-09T21:41:51;26.80;99.90
73277;DHT22;61501;43.316;5.372;2023-07-09T21:44:20;26.90;99.90
73277;DHT22;61501;43.316;5.372;2023-07-09T21:46:46;26.90;99.90
73277;DHT22;61501;43.316;5.372;2023-07-09T21:49:15;26.90;99.90
73277;DHT22;61501;43.316;5.372;2023-07-09T21:51:41;26.80;99.90
73277;DHT22;61501;43.316;5.372;2023-07-09T21:56:46;26.90;99.90
73277;DHT22;61501;43.316;5.372;2023-07-09T21:59:11;27.00;99.90
73277;DHT22;61501;43.316;5.372;2023-07-09T22:01:37;27.00;99.90
73277;DHT22;61501;43.316;5.372;2023-07-09T22:04:15;26.90;99.90
73277;DHT22;61501;43.316;5.372;2023-07-09T22:06:42;26.90;99.90
73277;DHT22;61501;43.316;5.372;2023-07-09T22:09:11;27.00;99.90
73277;DHT22;61501;43.316;5.372;2023-07-09T22:11:37;26.90;99.90
73277;DHT22;61501;43.316;5.372;2023-07-09T22:14:14;27.00;99.90
73277;DHT22;61501;43.316;5.372;2023-07-09T22:16:40;26.90;99.90
73277;DHT22;61501;43.316;5.372;2023-07-09T22:19:08;26.90;99.90
73277;DHT22;61501;43.316;5.372;2023-07-09T22:21:36;26.90;99.90
73277;DHT22;61501;43.316;5.372;2023-07-09T22:24:02;26.90;99.90
73277;DHT22;61501;43.316;5.372;2023-07-09T22:26:28;27.00;99.90
73277;DHT22;61501;43.316;5.372;2023-07-09T22:28:54;27.00;99.90
73277;DHT22;61501;43.316;5.372;2023-07-09T22:31:19;27.00;99.90
73277;DHT22;61501;43.316;5.372;2023-07-09T22:33:45;27.00;99.90
73277;DHT22;61501;43.316;5.372;2023-07-09T22:36:11;26.90;99.90
73277;DHT22;61501;43.316;5.372;2023-07-09T22:38:37;26.80;99.90
73277;DHT22;61501;43.316;5.372;2023-07-09T22:41:03;26.70;99.90
73277;DHT22;61501;43.316;5.372;2023-07-09T22:43:28;26.60;99.90
73277;DHT22;61501;43.316;5.372;2023-07-09T22:45:54;26.50;99.90
73277;DHT22;61501;43.316;5.372;2023-07-09T22:48:23;26.50;99.90
73277;DHT22;61501;43.316;5.372;2023-07-09T22:50:50;26.50;99.90
73277;DHT22;61501;43.316;5.372;2023-07-09T22:53:20;26.50;99.90
73277;DHT22;61501;43.316;5.372;2023-07-09T22:55:52;26.50;99.90
73277;DHT22;61501;43.316;5.372;2023-07-09T22:58:19;26.50;99.90
73277;DHT22;61501;43.316;5.372;2023-07-09T23:00:57;26.40;99.90
73277;DHT22;61501;43.316;5.372;2023-07-09T23:03:38;26.30;99.90
73277;DHT22;61501;43.316;5.372;2023-07-09T23:06:12;26.30;99.90
73277;DHT22;61501;43.316;5.372;2023-07-09T23:08:38;26.40;99.90
73277;DHT22;61501;43.316;5.372;2023-07-09T23:11:13;26.40;99.90
73277;DHT22;61501;43.316;5.372;2023-07-09T23:13:40;26.50;99.90
73277;DHT22;61501;43.316;5.372;2023-07-09T23:16:16;26.60;99.90
73277;DHT22;61501;43.316;5.372;2023-07-09T23:18:42;26.60;99.90
73277;DHT22;61501;43.316;5.372;2023-07-09T23:21:17;26.60;99.90
73277;DHT22;61501;43.316;5.372;2023-07-09T23:23:47;26.70;99.90
73277;DHT22;61501;43.316;5.372;2023-07-09T23:26:13;26.70;99.90
73277;DHT22;61501;43.316;5.372;2023-07-09T23:28:39;26.70;99.90
73277;DHT22;61501;43.316;5.372;2023-07-09T23:31:05;26.70;99.90
73277;DHT22;61501;43.316;5.372;2023-07-09T23:33:35;26.70;99.90
73277;DHT22;61501;43.316;5.372;2023-07-09T23:36:03;26.70;99.90
73277;DHT22;61501;43.316;5.372;2023-07-09T23:38:30;26.70;99.90
73277;DHT22;61501;43.316;5.372;2023-07-09T23:40:58;26.70;99.90
73277;DHT22;61501;43.316;5.372;2023-07-09T23:43:38;26.80;99.90
73277;DHT22;61501;43.316;5.372;2023-07-09T23:46:04;26.80;99.90
73277;DHT22;61501;43.316;5.372;2023-07-09T23:48:30;26.80;99.90
73277;DHT22;61501;43.316;5.372;2023-07-09T23:51:01;26.80;99.90
73277;DHT22;61501;43.316;5.372;2023-07-09T23:53:29;26.90;99.90
73277;DHT22;61501;43.316;5.372;2023-07-09T23:55:57;26.90;99.90
73277;DHT22;61501;43.316;5.372;2023-07-09T23:58:30;26.90;99.90
